Home   Weather   Poland   Warsaw   Past weeks
Flag for Poland

Past Weather in Warsaw, Poland — Yesterday and Last 2 Weeks

Currently: 63 °F. Fog. (Weather station: Warsaw Okecie Airport, Poland). See more current weather

Past Weather in Warsaw — Graph

°F

Warsaw Temperature Yesterday

Maximum temperature yesterday: 72 °F (at 1:00 pm)
Minimum temperature yesterday: 61 °F (at 4:30 am)
Average temperature yesterday: 65 °F

High & Low Weather Summary for the Past Weeks

 TemperatureHumidityPressure
High82 °F (May 21, 4:00 pm)100% (May 23, 3:00 pm)30.30 "Hg (May 23, 3:00 pm)
Low41 °F (May 13, 3:00 am)23% (May 11, 4:30 pm)29.77 "Hg (May 22, 3:00 pm)
Average62 °F53%30.05 "Hg
* Reported May 9 5:00 am — May 24 5:30 am, Warsaw. Weather by CustomWeather, © 2024

Note: Actual official high and low records may vary slightly from our data, if they occured in-between our weather recording intervals... More about our weather records

Warsaw Weather History for the Previous 24 Hours

Scroll right to see more
 ConditionsComfort  
Time TempWeatherWind HumidityBarometerVisibility
5:30 am
Fri, May 24
59 °FFog.2 mph100%30.07 "Hg4 mi
5:00 am59 °FFog.No wind100%30.07 "Hg6 mi
4:30 am59 °FFog.No wind100%30.07 "Hg6 mi
4:00 am59 °FFog.No wind100%30.07 "Hg5 mi
3:00 am59 °FFog.2 mph100%30.07 "Hg4 mi
2:30 am59 °FFog.No wind100%30.07 "Hg4 mi
2:00 am59 °FFog.No wind100%30.07 "Hg5 mi
1:30 am59 °FClear.6 mph100%30.07 "Hg6 mi
1:00 am59 °FClear.3 mph100%30.07 "Hg10 mi
12:30 am61 °FClear.3 mph94%30.07 "Hg10 mi
12:00 am63 °FClear.5 mph88%30.04 "Hg10 mi
11:30 pm
Thu, May 23
64 °FPassing clouds.5 mph88%30.04 "HgN/A
11:00 pm64 °FPassing clouds.5 mph88%30.04 "HgN/A
10:30 pm66 °FClear.6 mph83%30.04 "Hg10 mi
10:00 pm64 °FPassing clouds.5 mph94%30.04 "HgN/A
9:30 pm66 °FClear.2 mph78%30.04 "Hg10 mi
9:00 pm63 °FFog.1 mph94%30.04 "HgN/A
8:30 pm64 °FSunny.2 mph88%30.01 "Hg10 mi
8:00 pm66 °FSunny.1 mph83%30.01 "Hg10 mi
7:30 pm68 °FSunny.3 mph78%30.01 "Hg10 mi
7:00 pm68 °FSunny.2 mph78%30.01 "Hg10 mi
6:30 pm68 °FSunny.5 mph83%30.01 "Hg10 mi
6:00 pm68 °FSunny.5 mph83%30.01 "Hg10 mi
5:30 pm68 °FSunny.3 mph83%30.01 "Hg10 mi
5:00 pm68 °FSunny.7 mph83%29.98 "Hg10 mi
4:30 pm66 °FSprinkles. Passing clouds.7 mph94%29.98 "HgN/A
4:00 pm64 °FPassing clouds.6 mph94%29.98 "HgN/A
3:00 pm63 °FThunderstorms. Partly sunny.7 mph100%29.98 "Hg2 mi
2:30 pm66 °FThunderstorms. Partly sunny.8 mph83%29.98 "HgN/A
2:00 pm66 °FPartly sunny.9 mph83%29.98 "HgN/A
1:00 pm72 °FThunderstorms. Scattered clouds.10 mph69%29.98 "HgN/A
12:30 pm70 °FSprinkles. Scattered clouds.14 mph78%29.95 "HgN/A
12:00 pm70 °FSprinkles. Partly sunny.13 mph78%29.95 "HgN/A
11:30 am70 °FPartly sunny.12 mph78%29.95 "HgN/A
11:00 am70 °FScattered clouds.7 mph78%29.95 "HgN/A
10:30 am66 °FPartly sunny.8 mph88%29.95 "HgN/A
10:00 am66 °FScattered clouds.6 mph88%29.95 "HgN/A
9:30 am64 °FPassing clouds.6 mph88%29.95 "HgN/A
9:00 am64 °FPassing clouds.6 mph88%29.92 "HgN/A
8:30 am63 °FPassing clouds.8 mph94%29.92 "HgN/A
8:00 am63 °FPassing clouds.7 mph94%29.92 "HgN/A
7:30 am63 °FSprinkles. Scattered clouds.6 mph94%29.92 "HgN/A
7:00 am63 °FSunny.5 mph88%29.89 "Hg10 mi
6:30 am63 °FPassing clouds.6 mph88%29.89 "HgN/A
6:00 am63 °FSunny.7 mph83%29.89 "Hg10 mi
Weather by CustomWeather, © 2024

See weather overview